• Join FlightAware (Why Join?)
  • Login
  • US Flag 
 
06:44AM EST


 

Airport Tracker/Info


-or-


 

Live Flight TrackerFlight Track Log ✈ N1ER ✈ 30-Aug-2013 ✈ KPIE - KDAB

Flight Track Log - Related Links

Times and Time Zones

All times are in EDT time to prevent confusion due to time zone crossing. See the N1ER flight status page for this flight to view local times or setup timezone preferences in your user account.

Time Position Orientation Groundspeed Altitude Reporting Facility
EDT Latitude Longitude Course Direction KTS MPH feet Rate Location/Type
11:39AM 28.0000 -82.7167 336° Northwest 97 112 2,500  Level Tampa TRACON
11:40AM 28.0333 -82.7167 360° North 95 109 3,400 720 Climbing Tampa TRACON
11:41AM 28.0667 -82.7333 336° Northwest 121 139 4,100 240 Climbing Tampa TRACON
11:42AM 28.1000 -82.7167 24° Northeast 140 161 4,000 -120 Descending Tampa TRACON
11:43AM 28.1333 -82.7167 360° North 138 159 3,900  Descending Tampa TRACON
11:44AM 28.1667 -82.6833 41° Northeast 136 157 4,100 60 Climbing Tampa TRACON
11:45AM 28.2000 -82.6833 360° North 142 163 4,100 300 Level Tampa TRACON
11:46AM 28.2167 -82.6333 69° East 119 137 4,800 420 Climbing Tampa TRACON
11:47AM 28.2167 -82.6000 90° East 141 162 5,000 120 Climbing Tampa TRACON
11:48AM 28.2167 -82.5500 90° East 148 170 5,100  Climbing Tampa TRACON
11:49AM 28.2333 -82.5167 60° Northeast 146 168 5,100  Level Tampa TRACON
11:50AM 28.2333 -82.4667 90° East 149 171 5,100 -60 Level Tampa TRACON
11:51AM 28.2333 -82.4167 90° East 151 174 5,000 -60 Descending Tampa TRACON
11:52AM 28.2500 -82.3667 69° East 149 171 5,000  Level Tampa TRACON
11:53AM 28.2500 -82.3167 90° East 146 168 5,000  Level Tampa TRACON
11:54AM 28.2500 -82.2833 90° East 148 170 5,000  Level Tampa TRACON
11:55AM 28.2667 -82.2333 69° East 149 171 5,000  Level Tampa TRACON
11:56AM 28.2667 -82.2000 90° East 148 170 5,000  Level Tampa TRACON
11:57AM 28.2667 -82.1500 90° East 146 168 5,000  Level Tampa TRACON
11:59AM 28.2833 -82.0333 81° East 147 169 5,000  Level Orlando TRACON
12:00PM 28.3000 -81.9833 69° East 148 170 5,000  Level Orlando TRACON
12:01PM 28.3000 -81.9333 90° East 148 170 5,000  Level Orlando TRACON
12:02PM 28.3333 -81.9167 24° Northeast 145 167 5,000  Level Orlando TRACON
12:04PM 28.3667 -81.8833 41° Northeast 145 167 5,000  Level Orlando TRACON
12:05PM 28.4000 -81.8500 41° Northeast 146 168 5,000  Level Orlando TRACON
12:06PM 28.4333 -81.8167 41° Northeast 147 169 5,000  Level Orlando TRACON
12:07PM 28.4667 -81.8000 24° Northeast 144 166 5,000  Level Orlando TRACON
12:08PM 28.5000 -81.7667 41° Northeast 147 169 5,000  Level Orlando TRACON
12:09PM 28.5333 -81.7333 41° Northeast 149 171 5,000  Level Orlando TRACON
12:10PM 28.5667 -81.7000 41° Northeast 147 169 5,100  Climbing Orlando TRACON
12:11PM 28.6000 -81.6833 24° Northeast 145 167 5,000 -60 Descending Orlando TRACON
12:12PM 28.6333 -81.6500 41° Northeast 151 174 5,000  Level Orlando TRACON
12:13PM 28.6500 -81.6167 60° Northeast 151 174 5,000  Level Orlando TRACON
12:14PM 28.7000 -81.5833 30° Northeast 150 173 5,000  Level Orlando TRACON
12:15PM 28.7439 -81.5406 41° Northeast 152 175 5,000  Level Jacksonville Center
12:16PM 28.7769 -81.5069 42° Northeast 151 174 5,100  Climbing Jacksonville Center
12:17PM 28.8142 -81.4781 34° Northeast 151 174 5,000  Descending Jacksonville Center
12:18PM 28.8472 -81.4467 40° Northeast 155 178 5,100  Climbing Jacksonville Center
12:19PM 28.8803 -81.4131 42° Northeast 155 178 5,000 -60 Descending Jacksonville Center
12:20PM 28.9111 -81.3842 39° Northeast 154 177 5,000  Level Jacksonville Center
12:21PM 28.9442 -81.3481 44° Northeast 156 180 5,000 -120 Level Jacksonville Center
12:22PM 28.9750 -81.3119 46° Northeast 155 178 4,800 -540 Descending Jacksonville Center
12:23PM 29.0017 -81.2733 52° Northeast 160 184 4,000 -720 Descending Jacksonville Center
12:24PM 29.0283 -81.2375 50° Northeast 145 167 3,400 -540 Descending Jacksonville Center
12:25PM 29.0464 -81.1944 64° Northeast 146 168 3,000 -240 Descending Jacksonville Center
12:27PM 29.0761 -81.1642 30° Northeast  Level Estimated
12:27PM 29.0711 -81.1536 30° Northeast 150 173 3,000  Level Jacksonville Center
12:28PM 29.0914 -81.1128 60° Northeast 150 173 3,000  Level Jacksonville Center
12:29PM 29.1117 -81.0697 62° Northeast 149 171 3,000  Level Jacksonville Center
12:30PM 29.1319 -81.0242 63° Northeast 151 174 3,000  Level Jacksonville Center
12:31PM 29.1500 -80.9808 64° Northeast 156 180 3,000  Level Jacksonville Center
12:32PM 29.1681 -80.9356 65° Northeast 156 180 3,000  Level Jacksonville Center
12:33PM 29.1842 -80.8947 66° East 152 175 3,000  Level Jacksonville Center
12:34PM 29.2042 -80.8444 65° Northeast 152 175 3,000  Level Jacksonville Center
12:35PM 29.2203 -80.8011 67° East 152 175 3,000  Level Jacksonville Center
12:36PM 29.2494 -80.7958 North 146 168 3,000  Level Jacksonville Center
12:37PM 29.2583 -80.8383 283° West 140 161 3,100  Climbing Jacksonville Center
12:38PM 29.2550 -80.8814 265° West 145 167 3,000 -540 Descending Jacksonville Center
12:39PM 29.2306 -80.9294 240° Southwest 157 181 2,100 -720 Descending Jacksonville Center
12:40PM 29.2167 -80.9653 246° West 122 140 1,600 -420 Descending Jacksonville Center
12:41PM 29.2044 -80.9967 246° West 101 116 1,300 -540 Descending Jacksonville Center
12:42PM 29.1925 -81.0278 246° West 103 119 600 -720 Descending Jacksonville Center
12:44PM 29.1667 -81.0500 161° South  Level FlightAware Approximate
12:51PM 29.1799 -81.0581 161° South  Level Estimated
12:52PM 29.1799 -81.0581 161° South  Level Estimated
12:53PM 29.1799 -81.0581 161° South  Level Estimated